^^
Datos históricos de la estación: Murcia-Puente Tocinos
Diario Informe para Noviembre 15, 2017 Unidades:  Inglés    Métrico   Ambas
« Anterior Día
Siguiente Día »
Diario Semanal Mensual Anual Configurable
  Máximo: Mínimo: Media:
Temperatura: 67.8 °F 43.3 °F 54 °F
Punto de rocio: 46.2 °F 28.8 °F 37.2 °F
Humedad: 71% 38% 54%
Velocidad viento: 5.4mph 0mph 3.2mph
Racha viento: 9.2mph - -
Viento- - Sur
Presión: 30.1 in 30 in -
Precipitación: 0 in    
Historical Graphs
 
 
Tabla de datos para Noviembre 15, 2017
Hora Temperatura Punto de rocio Presión Viento Velocidad viento Racha viento Humedad Intensidad lluvia(por hora) Nubes
00:04 50.4 °F 34.9 °F 30.1 in ESE 1.4 mph 1.4 mph 55% 0 in CLR
00:09 50.2 °F 35.1 °F 30.1 in SW 1.8 mph 4.6 mph 56% 0 in CLR
00:14 50.2 °F 35.1 °F 30.1 in SW 1.8 mph 2.3 mph 56% 0 in CLR
00:19 50.2 °F 35.1 °F 30.1 in SW 2.4 mph 2.4 mph 56% 0 in CLR
00:24 50.2 °F 35.4 °F 30.1 in SSW 2.4 mph 2.4 mph 57% 0 in CLR
00:29 50.2 °F 35.4 °F 30.1 in South 2 mph 4.6 mph 57% 0 in CLR
00:34 49.8 °F 34.7 °F 30.1 in SSW 2 mph 4.6 mph 56% 0 in CLR
00:39 49.8 °F 34.7 °F 30.1 in SSE 3.1 mph 4.7 mph 56% 0 in CLR
00:44 49.6 °F 34.5 °F 30.1 in SSE 3.1 mph 4.6 mph 56% 0 in CLR
00:49 49.5 °F 34 °F 30.1 in SW 3.6 mph 4.6 mph 55% 0 in CLR
00:54 49.5 °F 34 °F 30.1 in SSW 3.6 mph 5.8 mph 55% 0 in CLR
00:59 49.5 °F 34 °F 30.1 in SSW 3.6 mph 4.6 mph 55% 0 in CLR
01:01 49.3 °F 33.8 °F 30.1 in SSW 3.6 mph 4.7 mph 55% 0 in CLR
01:06 49.5 °F 34 °F 30.1 in SW 3.6 mph 5.8 mph 55% 0 in CLR
01:11 49.5 °F 34 °F 30.1 in WSW 3.6 mph 4.6 mph 55% 0 in CLR
01:16 49.5 °F 34 °F 30.1 in WSW 3.6 mph 4.6 mph 55% 0 in CLR
01:21 49.5 °F 34 °F 30.1 in SSW 3.1 mph 4.6 mph 55% 0 in CLR
01:26 49.5 °F 34 °F 30.1 in SW 3.1 mph 4.6 mph 55% 0 in CLR
01:31 49.5 °F 33.4 °F 30.1 in SW 3.1 mph 5.8 mph 54% 0 in CLR
01:36 49.5 °F 33.4 °F 30.1 in SW 3.1 mph 3.5 mph 54% 0 in CLR
01:41 49.5 °F 33.4 °F 30.1 in SSW 2.9 mph 4.6 mph 54% 0 in CLR
01:46 49.3 °F 34.7 °F 30.1 in ESE 2.9 mph 4.6 mph 57% 0 in CLR
01:51 48 °F 34.9 °F 30.1 in SSE 2.9 mph 5.8 mph 60% 0 in CLR
01:56 47.1 °F 34.9 °F 30.1 in South 2.9 mph 4.7 mph 62% 0 in CLR
02:01 46.8 °F 34.3 °F 30.1 in SSE 3.6 mph 5.8 mph 62% 0 in CLR
02:06 46.2 °F 34.3 °F 30.1 in SE 3.6 mph 4.7 mph 63% 0 in CLR
02:11 45.9 °F 34 °F 30.1 in SSE 4.3 mph 6.9 mph 63% 0 in CLR
02:16 45.9 °F 33.6 °F 30.1 in South 4.3 mph 4.6 mph 62% 0 in CLR
02:21 46 °F 33.3 °F 30.1 in SSE 4.3 mph 5.8 mph 61% 0 in CLR
02:26 46.2 °F 33.1 °F 30.1 in SSE 4.3 mph 5.8 mph 60% 0 in CLR
02:31 46.4 °F 32.7 °F 30.1 in SSE 4.3 mph 5.8 mph 59% 0 in CLR
02:36 46.6 °F 33.1 °F 30.1 in SSW 4.3 mph 4.6 mph 59% 0 in CLR
02:41 46.6 °F 32.5 °F 30.1 in South 4.3 mph 5.9 mph 58% 0 in CLR
02:46 46.6 °F 32.2 °F 30.1 in South 4.3 mph 5.8 mph 57% 0 in CLR
02:51 46.6 °F 32.2 °F 30.1 in SSE 4 mph 6.9 mph 57% 0 in CLR
02:56 46.6 °F 32.2 °F 30.1 in SSW 4 mph 6.9 mph 57% 0 in CLR
02:57 46.8 °F 32.4 °F 30.1 in SSW 4 mph 6.9 mph 57% 0 in CLR
03:02 46.8 °F 32.4 °F 30.1 in South 4.3 mph 5.8 mph 57% 0 in CLR
03:07 46.8 °F 32.4 °F 30.1 in SSE 4.3 mph 5.8 mph 57% 0 in CLR
03:12 46.6 °F 32.2 °F 30.1 in SSW 4 mph 5.8 mph 57% 0 in CLR
03:17 46.6 °F 32.2 °F 30.1 in South 4 mph 5.8 mph 57% 0 in CLR
03:22 46.6 °F 31.6 °F 30.1 in SSW 4 mph 7.4 mph 56% 0 in CLR
03:27 46.6 °F 31.6 °F 30.1 in South 4 mph 5.8 mph 56% 0 in CLR
03:32 46.6 °F 31.3 °F 30.1 in SW 5.2 mph 5.9 mph 55% 0 in CLR
03:37 46.8 °F 31.5 °F 30.1 in South 5.2 mph 6.9 mph 55% 0 in CLR
03:42 46.8 °F 30.9 °F 30.1 in South 4.3 mph 4.7 mph 54% 0 in CLR
03:47 46.6 °F 30.7 °F 30.1 in South 4.3 mph 5.8 mph 54% 0 in CLR
03:52 46.4 °F 30.6 °F 30.1 in South 3.6 mph 4.6 mph 54% 0 in CLR
03:57 46.2 °F 30.6 °F 30.1 in SSE 3.6 mph 4.6 mph 54% 0 in CLR
04:02 46 °F 30.4 °F 30.1 in South 4 mph 6.9 mph 54% 0 in CLR
04:07 45.9 °F 30 °F 30.1 in SSE 4 mph 6.9 mph 54% 0 in CLR
04:12 45.7 °F 30.4 °F 30.1 in SE 4.7 mph 5.8 mph 55% 0 in CLR
04:17 45.5 °F 30.4 °F 30.1 in SSW 4.7 mph 5.8 mph 55% 0 in CLR
04:22 45.3 °F 30.6 °F 30.1 in SSE 4.3 mph 5.8 mph 56% 0 in CLR
04:23 45.3 °F 30.6 °F 30.1 in South 4.3 mph 5.8 mph 56% 0 in CLR
04:25 45.3 °F 30.6 °F 30.1 in South 4.3 mph 5.8 mph 56% 0 in CLR
04:30 45.1 °F 29.8 °F 30.1 in South 4.3 mph 6.9 mph 55% 0 in CLR
04:35 45.1 °F 29.8 °F 30.1 in South 4.3 mph 5.9 mph 55% 0 in CLR
04:40 45.1 °F 29.8 °F 30.1 in SSE 4.7 mph 8.1 mph 55% 0 in CLR
04:45 45.1 °F 29.8 °F 30.1 in SW 4.7 mph 6.9 mph 55% 0 in CLR
04:50 45.1 °F 29.8 °F 30.1 in SW 4.7 mph 5.8 mph 55% 0 in CLR
04:55 45.1 °F 30.4 °F 30.1 in SSE 4.7 mph 5.8 mph 56% 0 in CLR
05:00 45.1 °F 30.4 °F 30.1 in SSE 4 mph 5.9 mph 56% 0 in CLR
05:05 45.1 °F 30.4 °F 30.1 in SSE 4 mph 5.8 mph 56% 0 in CLR
05:10 45 °F 30.2 °F 30.1 in South 4.3 mph 6.9 mph 56% 0 in CLR
05:15 44.8 °F 30.6 °F 30.1 in SSW 4.3 mph 6.4 mph 57% 0 in CLR
05:20 44.8 °F 30.6 °F 30.1 in South 4.3 mph 5.8 mph 57% 0 in CLR
05:25 44.8 °F 30.6 °F 30.1 in South 4.3 mph 4.6 mph 57% 0 in CLR
05:30 45 °F 30.6 °F 30.1 in SSE 4 mph 6.9 mph 57% 0 in CLR
05:35 44.8 °F 31.3 °F 30.1 in SSE 4 mph 4.7 mph 59% 0 in CLR
05:40 44.1 °F 31.5 °F 30.1 in SSE 4.3 mph 6.2 mph 61% 0 in CLR
05:45 43.5 °F 31.8 °F 30.1 in South 4.3 mph 4.6 mph 63% 0 in CLR
05:50 43.3 °F 31.3 °F 30.1 in SSW 4.3 mph 5.4 mph 62% 0 in CLR
05:55 43.3 °F 31.3 °F 30.1 in South 4.3 mph 5.8 mph 62% 0 in CLR
06:00 43.5 °F 30.9 °F 30.1 in SSW 3.6 mph 5.8 mph 61% 0 in CLR
06:05 43.7 °F 30.4 °F 30.1 in South 3.6 mph 4.6 mph 59% 0 in CLR
06:10 43.9 °F 30 °F 30.1 in SSE 3.1 mph 6.4 mph 58% 0 in CLR
06:15 43.9 °F 30 °F 30.1 in SSW 3.1 mph 5.8 mph 58% 0 in CLR
06:20 43.7 °F 29.8 °F 30.1 in South 4.3 mph 5.8 mph 58% 0 in CLR
06:25 43.7 °F 29.8 °F 30.1 in South 4.3 mph 5.8 mph 58% 0 in CLR
06:30 43.5 °F 30 °F 30.1 in SSE 4 mph 5.8 mph 59% 0 in CLR
06:35 43.5 °F 30 °F 30.1 in South 4 mph 4.6 mph 59% 0 in CLR
06:40 43.5 °F 30 °F 30.1 in SSW 4 mph 4.6 mph 59% 0 in CLR
06:45 43.5 °F 30 °F 30.1 in SSW 4 mph 4.6 mph 59% 0 in CLR
06:50 43.9 °F 30 °F 30.1 in SSW 3.1 mph 4.6 mph 58% 0 in CLR
06:55 44.1 °F 29.8 °F 30.1 in South 3.1 mph 4.6 mph 57% 0 in CLR
07:00 44.1 °F 30.2 °F 30.1 in SSE 3.1 mph 4.7 mph 58% 0 in CLR
07:05 44.1 °F 30.6 °F 30.1 in SSE 3.1 mph 4.6 mph 59% 0 in CLR
07:10 43.9 °F 30.9 °F 30.1 in South 3.1 mph 3.5 mph 60% 0 in CLR
07:15 43.5 °F 30.6 °F 30.1 in South 3.1 mph 4.6 mph 60% 0 in CLR
07:20 43.3 °F 30.4 °F 30.1 in South 3.1 mph 4.6 mph 60% 0 in CLR
07:25 43.5 °F 30 °F 30.1 in SW 3.1 mph 5.8 mph 59% 0 in CLR
07:30 43.5 °F 30 °F 30.1 in SW 2.9 mph 4.6 mph 59% 0 in CLR
07:35 43.9 °F 30 °F 30.1 in South 2.9 mph 5.8 mph 58% 0 in CLR
07:40 43.9 °F 30 °F 30.1 in SSW 3.1 mph 4.3 mph 58% 0 in CLR
07:45 44.1 °F 30.2 °F 30.1 in SSW 3.1 mph 4.7 mph 58% 0 in CLR
07:50 44.1 °F 30.6 °F 30.1 in South 3.1 mph 4.6 mph 59% 0 in
07:55 43.9 °F 31.3 °F 30.1 in SSE 3.1 mph 5.8 mph 61% 0 in
08:00 43.7 °F 31.1 °F 30.1 in SSE 4 mph 5.8 mph 61% 0 in
08:05 43.5 °F 30.9 °F 30.1 in South 4 mph 5.8 mph 61% 0 in
08:10 43.5 °F 30.9 °F 30.1 in SSW 4.3 mph 5.8 mph 61% 0 in
08:15 43.7 °F 30.7 °F 30.1 in SSW 4.3 mph 6.9 mph 60% 0 in
08:20 44.1 °F 31.1 °F 30.1 in SSE 4 mph 5.8 mph 60% 0 in
08:25 44.2 °F 31.3 °F 30.1 in SSW 4 mph 4.6 mph 60% 0 in
08:30 44.4 °F 30.9 °F 30.1 in South 3.6 mph 5.2 mph 59% 0 in
08:35 44.4 °F 30.9 °F 30.1 in SSE 3.6 mph 4.6 mph 59% 0 in
08:40 44.6 °F 31.6 °F 30.1 in South 4 mph 5.8 mph 60% 0 in
08:45 44.8 °F 31.6 °F 30.1 in SSE 4 mph 5.8 mph 60% 0 in FEW
08:50 44.8 °F 31.3 °F 30.1 in SSE 4 mph 6.9 mph 59% 0 in
08:55 44.8 °F 31.6 °F 30.1 in SSE 4 mph 5.9 mph 60% 0 in
09:00 44.8 °F 31.6 °F 30.1 in SSE 4.7 mph 6.2 mph 60% 0 in
09:05 45 °F 31.8 °F 30.1 in SSE 4.7 mph 5.8 mph 60% 0 in
09:10 45.1 °F 32.2 °F 30.1 in South 4.7 mph 5.8 mph 60% 0 in FEW
09:15 45.5 °F 32 °F 30.1 in SSE 4.7 mph 5.8 mph 59% 0 in
09:20 45.9 °F 32.4 °F 30.1 in SSE 4 mph 5.8 mph 59% 0 in
09:25 46.2 °F 30.6 °F 30.1 in SSW 4 mph 6.9 mph 54% 0 in FEW
09:30 46.6 °F 29.8 °F 30.1 in SSW 4.3 mph 6.9 mph 52% 0 in
09:35 46.8 °F 29.7 °F 30.1 in South 4.3 mph 6.9 mph 51% 0 in
09:40 47.1 °F 29.8 °F 30.1 in South 4.7 mph 8.1 mph 51% 0 in
09:45 47.7 °F 30.4 °F 30.1 in South 4.7 mph 5.8 mph 51% 0 in
09:50 47.8 °F 30 °F 30.1 in SSW 4.3 mph 6.9 mph 50% 0 in
09:55 48 °F 30.2 °F 30.1 in SSW 4.3 mph 5.8 mph 50% 0 in
10:00 48.4 °F 30 °F 30.1 in South 4.7 mph 6.9 mph 49% 0 in
10:06 48.6 °F 29.1 °F 30.1 in SW 4.7 mph 6.2 mph 47% 0 in
10:10 48.6 °F 29.1 °F 30.1 in SSW 4.7 mph 6.9 mph 47% 0 in
10:15 48.9 °F 29.7 °F 30.1 in SSW 4.7 mph 4.7 mph 47% 0 in
10:20 49.5 °F 29.5 °F 30.1 in South 4 mph 5.8 mph 46% 0 in
10:25 49.6 °F 29.7 °F 30.1 in SSE 4 mph 6.9 mph 46% 0 in
10:30 50 °F 29.5 °F 30.1 in SW 4 mph 7.6 mph 45% 0 in
10:35 50.2 °F 30.2 °F 30.1 in SW 4 mph 5.8 mph 46% 0 in
10:40 50.5 °F 30 °F 30.1 in SSE 4.3 mph 6.9 mph 45% 0 in
10:45 50.7 °F 30 °F 30.1 in SW 4.3 mph 8.1 mph 45% 0 in
10:51 51.1 °F 29.3 °F 30.1 in SSW 4.7 mph 8.1 mph 43% 0 in
10:56 51.4 °F 29.7 °F 30.1 in SSW 4.7 mph 8.1 mph 43% 0 in
11:01 51.8 °F 29.5 °F 30.1 in SW 5.2 mph 6.9 mph 42% 0 in
11:06 51.8 °F 28.8 °F 30.1 in SSE 5.2 mph 6.9 mph 41% 0 in
11:11 52.2 °F 29.1 °F 30.1 in South 4.3 mph 6.4 mph 41% 0 in
11:16 52.7 °F 29.7 °F 30.1 in South 4.3 mph 6.9 mph 41% 0 in
11:21 53.1 °F 29.5 °F 30.1 in SSE 4.3 mph 6.9 mph 40% 0 in
11:26 53.4 °F 29.7 °F 30.1 in SW 4.3 mph 5.8 mph 40% 0 in
11:31 54 °F 29.5 °F 30.1 in South 3.6 mph 4.6 mph 39% 0 in
11:36 54.3 °F 29.8 °F 30.1 in SSW 3.6 mph 5.8 mph 39% 0 in
11:41 54.3 °F 29.8 °F 30.1 in SSW 3.6 mph 3.6 mph 39% 0 in
11:46 54.9 °F 30.4 °F 30.1 in South 3.6 mph 6.9 mph 39% 0 in
11:51 55.2 °F 30.7 °F 30.1 in West 3.1 mph 5.8 mph 39% 0 in
11:56 55.6 °F 30.4 °F 30.1 in SSW 3.1 mph 5.8 mph 38% 0 in
12:01 56.1 °F 30.7 °F 30.1 in SW 3.1 mph 5.8 mph 38% 0 in
12:06 56.7 °F 31.3 °F 30.1 in West 3.1 mph 3.5 mph 38% 0 in
12:11 56.8 °F 31.5 °F 30.1 in SSE 3.1 mph 5.9 mph 38% 0 in
12:16 57 °F 31.6 °F 30.1 in SW 3.1 mph 4.6 mph 38% 0 in CLR
12:21 57.6 °F 32.2 °F 30.1 in South 3.1 mph 5.8 mph 38% 0 in CLR
12:26 57.9 °F 32.4 °F 30.1 in SSW 3.1 mph 5.2 mph 38% 0 in CLR
12:31 58.3 °F 33.4 °F 30.1 in SSW 3.1 mph 3.5 mph 39% 0 in CLR
12:36 58.6 °F 33.1 °F 30.1 in SSW 3.1 mph 4.6 mph 38% 0 in CLR
12:41 58.6 °F 33.1 °F 30.1 in West 2.9 mph 3.5 mph 38% 0 in CLR
12:46 59.4 °F 33.6 °F 30.1 in SW 2.9 mph 5.8 mph 38% 0 in CLR
12:51 59.5 °F 34 °F 30.1 in SSW 2.9 mph 5.8 mph 38% 0 in CLR
12:56 59.5 °F 34.5 °F 30.1 in SW 2.9 mph 5.8 mph 39% 0 in CLR
13:01 59.9 °F 34.9 °F 30.1 in SSE 4 mph 4.6 mph 39% 0 in CLR
13:06 60.3 °F 35.8 °F 30.1 in SSW 4 mph 5.9 mph 40% 0 in CLR
13:11 60.6 °F 35.4 °F 30.1 in SSE 3.1 mph 3.1 mph 39% 0 in CLR
13:16 61 °F 36.5 °F 30.1 in SSE 3.1 mph 5.8 mph 40% 0 in CLR
13:21 61.3 °F 37.4 °F 30.1 in SW 2.9 mph 5.9 mph 41% 0 in CLR
13:26 61.5 °F 37.6 °F 30.1 in ESE 2.9 mph 4.6 mph 41% 0 in CLR
13:31 61.9 °F 37.9 °F 30.1 in SSW 3.1 mph 4.7 mph 41% 0 in CLR
13:36 61.9 °F 37.2 °F 30.1 in South 3.1 mph 5.8 mph 40% 0 in CLR
13:41 62.2 °F 38.1 °F 30.1 in SSW 3.6 mph 6.9 mph 41% 0 in CLR
13:46 62.4 °F 39 °F 30.1 in West 3.6 mph 3.6 mph 42% 0 in CLR
13:51 62.6 °F 39.2 °F 30.1 in South 3.1 mph 4.6 mph 42% 0 in CLR
13:56 63.1 °F 39.7 °F 30 in SSW 3.1 mph 4.7 mph 42% 0 in CLR
14:01 63.3 °F 39.7 °F 30 in WSW 2.9 mph 3.5 mph 42% 0 in CLR
14:06 63.7 °F 40.1 °F 30 in North 2.9 mph 3.5 mph 42% 0 in CLR
14:11 64.2 °F 40.6 °F 30 in ESE 2 mph 3.5 mph 42% 0 in CLR
14:16 64.6 °F 40.3 °F 30 in SE 2 mph 4.6 mph 41% 0 in CLR
14:21 64.8 °F 41.2 °F 30 in NNE 2.4 mph 3.5 mph 42% 0 in CLR
14:26 64.9 °F 41.4 °F 30 in North 2.4 mph 3.5 mph 42% 0 in CLR
14:31 65.1 °F 41.4 °F 30 in West 2 mph 5.8 mph 42% 0 in CLR
14:36 65.1 °F 41.4 °F 30 in WSW 2 mph 4.6 mph 42% 0 in CLR
14:41 65.3 °F 41.5 °F 30 in ESE 2.9 mph 4.6 mph 42% 0 in CLR
14:46 65.5 °F 41.2 °F 30 in ESE 2.9 mph 3.5 mph 41% 0 in CLR
14:51 65.8 °F 42.1 °F 30 in WNW 2.9 mph 3.5 mph 42% 0 in CLR
14:56 66 °F 41.5 °F 30 in WSW 2.9 mph 4.6 mph 41% 0 in CLR
15:01 66.4 °F 42.1 °F 30 in WNW 2.9 mph 5.8 mph 41% 0 in CLR
15:07 66.2 °F 42.4 °F 30 in West 2.9 mph 3.6 mph 42% 0 in CLR
15:11 66.4 °F 42.6 °F 30 in SW 2.9 mph 4.6 mph 42% 0 in CLR
15:16 66.4 °F 42.6 °F 30 in South 2.9 mph 5.8 mph 42% 0 in CLR
15:21 66.4 °F 42.6 °F 30 in SW 3.6 mph 5.8 mph 42% 0 in CLR
15:26 66.6 °F 42.6 °F 30 in SW 3.6 mph 4.6 mph 42% 0 in CLR
15:32 66.6 °F 42.1 °F 30 in SW 3.1 mph 4.6 mph 41% 0 in CLR
15:37 66.7 °F 42.3 °F 30 in South 3.1 mph 3.5 mph 41% 0 in CLR
15:42 66.7 °F 42.3 °F 30 in SSW 2.4 mph 4.6 mph 41% 0 in CLR
15:47 66.7 °F 42.3 °F 30 in SE 2.4 mph 4 mph 41% 0 in CLR
15:52 66.7 °F 43 °F 30 in South 3.1 mph 4.6 mph 42% 0 in CLR
15:57 66.7 °F 42.3 °F 30 in SSE 3.1 mph 5.8 mph 41% 0 in CLR
16:02 66.9 °F 43.2 °F 30 in ESE 3.1 mph 4.6 mph 42% 0 in CLR
16:07 67.1 °F 43.2 °F 30 in SSW 3.1 mph 4.6 mph 42% 0 in CLR
16:12 67.3 °F 42.8 °F 30 in SW 3.1 mph 3.5 mph 41% 0 in CLR
16:17 67.5 °F 43 °F 30 in WSW 3.1 mph 3.1 mph 41% 0 in CLR
16:18 67.6 °F 43.2 °F 30 in WSW 1.8 mph 2.3 mph 41% 0 in CLR
16:23 67.6 °F 43.2 °F 30 in WSW 1.8 mph 2.3 mph 41% 0 in CLR
16:28 67.8 °F 43.2 °F 30 in NE 1.4 mph 4 mph 41% 0 in CLR
16:33 67.8 °F 43.2 °F 30 in ESE 1.4 mph 4.6 mph 41% 0 in CLR
16:38 67.5 °F 43 °F 30 in East 2.9 mph 5.8 mph 41% 0 in CLR
16:43 67.3 °F 42.8 °F 30 in East 2.9 mph 4.6 mph 41% 0 in CLR
16:48 67.1 °F 43.2 °F 30 in ENE 2.9 mph 3.5 mph 42% 0 in CLR
16:53 67.1 °F 43.9 °F 30 in East 2.9 mph 5.8 mph 43% 0 in CLR
16:58 67.1 °F 44.4 °F 30 in ESE 2.4 mph 5.8 mph 44% 0 in CLR
17:03 66.9 °F 45.5 °F 30 in SSE 2.4 mph 8.5 mph 46% 0 in CLR
17:08 66.4 °F 45.5 °F 30 in SSE 4.3 mph 9.2 mph 47% 0 in CLR
17:13 66 °F 45.9 °F 30 in SE 4.3 mph 5.8 mph 48% 0 in CLR
17:18 65.7 °F 46 °F 30 in ESE 4.7 mph 5.9 mph 49% 0 in CLR
17:23 65.3 °F 46.2 °F 30 in ESE 4.7 mph 6.9 mph 50% 0 in CLR
17:28 64.8 °F 45.7 °F 30 in East 5.4 mph 6.9 mph 50% 0 in CLR
17:33 64.6 °F 46 °F 30 in East 5.4 mph 6.9 mph 51% 0 in CLR
17:38 64.4 °F 45.9 °F 30 in East 4.3 mph 4.6 mph 51% 0 in CLR
17:43 64.2 °F 46.2 °F 30 in ESE 4.3 mph 4.6 mph 52% 0 in CLR
17:48 64 °F 46 °F 30 in ESE 4 mph 5.8 mph 52% 0 in CLR
17:53 63.7 °F 45.7 °F 30 in ESE 4 mph 4.6 mph 52% 0 in CLR
17:58 63.3 °F 45.9 °F 30 in ESE 3.1 mph 4.6 mph 53% 0 in CLR
18:03 63.1 °F 45.7 °F 30 in ESE 3.1 mph 5.8 mph 53% 0 in CLR
18:08 63 °F 46 °F 30 in ESE 3.1 mph 4.6 mph 54% 0 in CLR
18:13 62.6 °F 45.7 °F 30 in SE 3.1 mph 5.8 mph 54% 0 in CLR
18:18 62.2 °F 45.9 °F 30 in ESE 3.1 mph 5.8 mph 55% 0 in CLR
18:23 62.1 °F 45.7 °F 30 in SE 3.1 mph 4.7 mph 55% 0 in CLR
18:28 61.7 °F 45.9 °F 30 in SE 3.6 mph 5.8 mph 56% 0 in CLR
18:33 61.5 °F 45.7 °F 30 in SE 3.6 mph 4.6 mph 56% 0 in CLR
18:38 61.3 °F 46 °F 30 in ESE 3.1 mph 3.5 mph 57% 0 in CLR
18:43 61.2 °F 45.9 °F 30 in SE 3.1 mph 4.6 mph 57% 0 in CLR
18:48 61 °F 45.7 °F 30 in SE 2.4 mph 2.9 mph 57% 0 in CLR
18:53 60.8 °F 45.9 °F 30 in SE 2.4 mph 3.5 mph 58% 0 in CLR
18:58 60.6 °F 45.9 °F 30 in ENE 2 mph 3.5 mph 58% 0 in CLR
19:03 60.6 °F 45.9 °F 30 in ENE 2 mph 2.3 mph 58% 0 in CLR
19:08 60.6 °F 45.9 °F 30 in ENE 1.8 mph 1.8 mph 58% 0 in CLR
19:13 60.4 °F 45.7 °F 30 in ENE 1.8 mph 2.3 mph 58% 0 in CLR
19:18 60.3 °F 45.3 °F 30 in ENE 1.4 mph 2.3 mph 58% 0 in CLR
19:23 60.3 °F 45.9 °F 30 in ENE 1.4 mph 1.4 mph 59% 0 in CLR
19:28 60.1 °F 45.7 °F 30 in ENE 1.4 mph 2.3 mph 59% 0 in CLR
19:33 59.7 °F 45.9 °F 30 in ENE 1.4 mph 2.3 mph 60% 0 in CLR
19:35 59.7 °F 45.9 °F 30 in ENE 1.4 mph 2.3 mph 60% 0 in CLR
19:40 59.5 °F 45.7 °F 30 in Calm   2.3 mph 60% 0 in CLR
19:45 59.4 °F 45.9 °F 30 in Calm   1.8 mph 61% 0 in CLR
19:50 59.2 °F 45.7 °F 30 in Calm   2.4 mph 61% 0 in CLR
19:55 59.2 °F 45.7 °F 30 in Calm   2.3 mph 61% 0 in CLR
20:00 59.2 °F 45.7 °F 30 in ENE 1.4 mph 2.3 mph 61% 0 in CLR
20:05 58.8 °F 45.3 °F 30 in ENE 1.4 mph 2.4 mph 61% 0 in CLR
20:06 59 °F 45.7 °F 30 in ENE 1.4 mph 2.4 mph 61% 0 in CLR
20:11 58.8 °F 45.9 °F 30 in ENE 1.8 mph 3.5 mph 62% 0 in CLR
20:16 58.6 °F 45.7 °F 30 in NE 1.8 mph 3.5 mph 62% 0 in CLR
20:21 58.6 °F 45.7 °F 30 in NNE 2.4 mph 3.5 mph 62% 0 in CLR
20:26 58.5 °F 45.5 °F 30 in NNE 2.4 mph 3.6 mph 62% 0 in CLR
20:31 58.5 °F 45.5 °F 30 in NNE 2.9 mph 3.5 mph 62% 0 in CLR
20:36 58.5 °F 45.9 °F 30 in NNE 2.9 mph 3.5 mph 63% 0 in CLR
20:40 58.5 °F 45.9 °F 30 in NNW 2.4 mph 3.5 mph 63% 0 in CLR
20:46 58.5 °F 45.9 °F 30 in NNW 2.4 mph 2.4 mph 63% 0 in CLR
20:51 58.5 °F 45.9 °F 30 in NNW 1.8 mph 2.4 mph 63% 0 in CLR
20:56 58.5 °F 45.9 °F 30 in NW 1.8 mph 2.3 mph 63% 0 in CLR
21:01 58.5 °F 45.5 °F 30 in West 2 mph 2.3 mph 62% 0 in CLR
21:06 58.5 °F 45.9 °F 30 in SSW 2 mph 3.6 mph 63% 0 in CLR
21:11 58.5 °F 45.9 °F 30 in SSW 1.4 mph 3.5 mph 63% 0 in CLR
21:16 58.5 °F 45.9 °F 30 in SSW 1.4 mph 3.5 mph 63% 0 in CLR
21:21 58.6 °F 46 °F 30 in SW 2 mph 4.6 mph 63% 0 in CLR
21:26 58.6 °F 45.7 °F 30 in SW 2 mph 4.6 mph 62% 0 in CLR
21:31 58.6 °F 45.7 °F 30 in SSW 2.9 mph 3.5 mph 62% 0 in CLR
21:36 58.6 °F 46 °F 30 in SSE 2.9 mph 4.6 mph 63% 0 in CLR
21:41 58.5 °F 45.9 °F 30.1 in SSE 2.4 mph 3.5 mph 63% 0 in CLR
21:46 58.3 °F 45.7 °F 30.1 in SSE 2.4 mph 2.4 mph 63% 0 in CLR
21:51 58.1 °F 45.7 °F 30.1 in SSE 2 mph 2.3 mph 63% 0 in CLR
21:56 57.9 °F 45.9 °F 30.1 in SSE 2 mph   64% 0 in CLR
22:06 57.6 °F 45.9 °F 30.1 in ESE 1.4 mph 3.5 mph 65% 0 in CLR
22:11 57.4 °F 45.7 °F 30.1 in ESE 2 mph 2.3 mph 65% 0 in CLR
22:16 56.8 °F 45.7 °F 30.1 in SE 2 mph 2.3 mph 66% 0 in CLR
22:21 56.7 °F 45.3 °F 30.1 in SSE 1.8 mph 4.6 mph 66% 0 in CLR
22:26 56.5 °F 45.7 °F 30.1 in SSE 1.8 mph 2.3 mph 67% 0 in CLR
22:31 56.5 °F 45.7 °F 30.1 in SSE 2 mph 2.3 mph 67% 0 in CLR
22:36 56.1 °F 45.3 °F 30.1 in SSE 2 mph 2 mph 67% 0 in CLR
22:41 55.9 °F 45.5 °F 30.1 in Calm   2.3 mph 68% 0 in CLR
22:46 55.8 °F 45.3 °F 30.1 in Calm   3.1 mph 68% 0 in CLR
22:51 55.6 °F 45.7 °F 30.1 in WSW 1.8 mph 5.8 mph 69% 0 in CLR
22:56 55.6 °F 45.7 °F 30.1 in SSW 1.8 mph 4.7 mph 69% 0 in CLR
23:01 55.6 °F 45.7 °F 30.1 in SSW 3.1 mph 5.8 mph 69% 0 in CLR
23:06 55.4 °F 45.3 °F 30.1 in South 3.1 mph 5.2 mph 69% 0 in CLR
23:11 55 °F 45.1 °F 30.1 in South 4 mph 4.6 mph 69% 0 in CLR
23:16 54.9 °F 45 °F 30.1 in SSW 4 mph 4.7 mph 69% 0 in CLR
23:21 54.5 °F 45 °F 30.1 in SSW 3.1 mph 5.8 mph 70% 0 in CLR
23:26 54.3 °F 44.8 °F 30.1 in SSW 3.1 mph 5.8 mph 70% 0 in CLR
23:27 54.3 °F 44.8 °F 30.1 in South 3.1 mph 4.6 mph 70% 0 in CLR
23:32 54.1 °F 45 °F 30.1 in SSW 3.6 mph 5.8 mph 71% 0 in CLR
23:37 54.1 °F 45 °F 30.1 in SW 3.6 mph 4.6 mph 71% 0 in CLR
23:42 54.1 °F 45 °F 30.1 in SSW 2.9 mph 3.6 mph 71% 0 in CLR
23:47 54 °F 44.8 °F 30.1 in SSW 2.9 mph 8.1 mph 71% 0 in CLR
23:52 53.8 °F 44.6 °F 30.1 in SSW 3.1 mph 4.6 mph 71% 0 in CLR
23:57 53.4 °F 44.2 °F 30.1 in SSW 3.1 mph 5.8 mph 71% 0 in CLR
Murcia-Puente Tocinos, España
Compliments of Weather Underground - 2.75 mb

La estación de MeteoMurcia.com, publica sus datos en los siguientes proyectos:

Meteoclimatic www.awekas.at

W3Counter
Web Analytics